sensor_id;sensor_type;location;lat;lon;timestamp;pressure;altitude;pressure_sealevel;temperature;humidity
42411;BME280;28056;51.112;0.984;2022-07-23T00:04:48;101040.83;;;20.82;45.31
42411;BME280;28056;51.112;0.984;2022-07-23T00:07:15;101043.04;;;21.24;45.19
42411;BME280;28056;51.112;0.984;2022-07-23T00:09:43;101041.99;;;20.36;45.92
42411;BME280;28056;51.112;0.984;2022-07-23T00:12:10;101038.10;;;21.08;45.49
42411;BME280;28056;51.112;0.984;2022-07-23T00:14:38;101038.40;;;21.15;45.37
42411;BME280;28056;51.112;0.984;2022-07-23T00:17:05;101031.48;;;20.57;46.71
42411;BME280;28056;51.112;0.984;2022-07-23T00:19:33;101024.13;;;20.77;46.25
42411;BME280;28056;51.112;0.984;2022-07-23T00:22:01;101019.65;;;20.91;46.03
42411;BME280;28056;51.112;0.984;2022-07-23T00:24:28;101019.28;;;20.47;47.11
42411;BME280;28056;51.112;0.984;2022-07-23T00:26:56;101018.91;;;20.61;46.82
42411;BME280;28056;51.112;0.984;2022-07-23T00:29:24;101018.02;;;20.58;47.04
42411;BME280;28056;51.112;0.984;2022-07-23T00:31:51;101018.75;;;20.67;46.95
42411;BME280;28056;51.112;0.984;2022-07-23T00:34:19;101019.69;;;20.55;46.39
42411;BME280;28056;51.112;0.984;2022-07-23T00:36:46;101018.51;;;20.32;47.10
42411;BME280;28056;51.112;0.984;2022-07-23T00:39:14;101012.21;;;20.69;46.17
42411;BME280;28056;51.112;0.984;2022-07-23T00:41:42;101012.72;;;20.63;46.14
42411;BME280;28056;51.112;0.984;2022-07-23T00:44:19;101013.48;;;20.42;46.56
42411;BME280;28056;51.112;0.984;2022-07-23T00:46:48;101014.31;;;20.51;46.07
42411;BME280;28056;51.112;0.984;2022-07-23T00:49:15;101015.21;;;20.65;46.28
42411;BME280;28056;51.112;0.984;2022-07-23T00:51:43;101013.13;;;20.50;45.87
42411;BME280;28056;51.112;0.984;2022-07-23T00:54:11;101005.76;;;20.70;45.82
42411;BME280;28056;51.112;0.984;2022-07-23T00:56:39;101002.71;;;20.67;45.65
42411;BME280;28056;51.112;0.984;2022-07-23T00:59:08;101002.51;;;20.55;46.05
42411;BME280;28056;51.112;0.984;2022-07-23T01:01:35;101004.47;;;20.37;46.17
42411;BME280;28056;51.112;0.984;2022-07-23T01:04:03;101004.62;;;20.23;46.17
42411;BME280;28056;51.112;0.984;2022-07-23T01:06:35;101010.18;;;20.18;46.27
42411;BME280;28056;51.112;0.984;2022-07-23T01:09:04;101014.66;;;20.58;46.23
42411;BME280;28056;51.112;0.984;2022-07-23T01:11:33;101013.48;;;20.36;46.31
42411;BME280;28056;51.112;0.984;2022-07-23T01:14:11;101013.96;;;19.90;46.95
42411;BME280;28056;51.112;0.984;2022-07-23T01:16:39;101017.21;;;20.31;46.28
42411;BME280;28056;51.112;0.984;2022-07-23T01:19:06;101017.42;;;20.27;46.25
42411;BME280;28056;51.112;0.984;2022-07-23T01:21:37;101021.32;;;20.25;46.19
42411;BME280;28056;51.112;0.984;2022-07-23T01:24:06;101024.67;;;20.47;46.26
42411;BME280;28056;51.112;0.984;2022-07-23T01:26:34;101027.71;;;20.11;46.60
42411;BME280;28056;51.112;0.984;2022-07-23T01:29:02;101028.02;;;20.11;46.50
42411;BME280;28056;51.112;0.984;2022-07-23T01:31:30;101031.00;;;20.11;46.56
42411;BME280;28056;51.112;0.984;2022-07-23T01:33:58;101029.52;;;20.14;46.75
42411;BME280;28056;51.112;0.984;2022-07-23T01:36:25;101030.03;;;20.31;46.87
42411;BME280;28056;51.112;0.984;2022-07-23T01:38:53;101032.36;;;20.38;47.11
42411;BME280;28056;51.112;0.984;2022-07-23T01:41:21;101035.45;;;20.29;46.92
42411;BME280;28056;51.112;0.984;2022-07-23T01:43:48;101037.44;;;20.25;46.86
42411;BME280;28056;51.112;0.984;2022-07-23T01:46:16;101036.65;;;20.30;47.08
42411;BME280;28056;51.112;0.984;2022-07-23T01:48:43;101034.59;;;19.95;47.01
42411;BME280;28056;51.112;0.984;2022-07-23T01:51:11;101034.37;;;20.15;46.87
42411;BME280;28056;51.112;0.984;2022-07-23T01:53:39;101037.60;;;20.10;46.99
42411;BME280;28056;51.112;0.984;2022-07-23T01:56:07;101040.45;;;20.08;46.89
42411;BME280;28056;51.112;0.984;2022-07-23T01:58:34;101037.19;;;19.96;47.38
42411;BME280;28056;51.112;0.984;2022-07-23T02:01:02;101034.88;;;19.94;47.50
42411;BME280;28056;51.112;0.984;2022-07-23T02:03:29;101032.25;;;19.83;47.53
42411;BME280;28056;51.112;0.984;2022-07-23T02:05:57;101029.17;;;20.00;47.27
42411;BME280;28056;51.112;0.984;2022-07-23T02:08:25;101027.32;;;19.83;47.67
42411;BME280;28056;51.112;0.984;2022-07-23T02:10:52;101027.95;;;19.95;47.46
42411;BME280;28056;51.112;0.984;2022-07-23T02:13:20;101027.66;;;19.94;47.48
42411;BME280;28056;51.112;0.984;2022-07-23T02:15:48;101028.21;;;19.87;47.95
42411;BME280;28056;51.112;0.984;2022-07-23T02:18:15;101028.09;;;19.95;48.04
42411;BME280;28056;51.112;0.984;2022-07-23T02:20:43;101027.53;;;19.81;47.90
42411;BME280;28056;51.112;0.984;2022-07-23T02:23:11;101021.75;;;19.92;48.52
42411;BME280;28056;51.112;0.984;2022-07-23T02:25:38;101024.48;;;19.89;47.90
42411;BME280;28056;51.112;0.984;2022-07-23T02:28:06;101026.59;;;20.17;47.65
42411;BME280;28056;51.112;0.984;2022-07-23T02:30:34;101024.77;;;20.21;47.35
42411;BME280;28056;51.112;0.984;2022-07-23T02:33:01;101022.81;;;20.18;47.38
42411;BME280;28056;51.112;0.984;2022-07-23T02:35:29;101019.80;;;20.18;47.18
42411;BME280;28056;51.112;0.984;2022-07-23T02:37:57;101019.26;;;19.87;47.41
42411;BME280;28056;51.112;0.984;2022-07-23T02:40:24;101021.27;;;20.19;47.16
42411;BME280;28056;51.112;0.984;2022-07-23T02:42:52;101019.21;;;19.91;47.63
42411;BME280;28056;51.112;0.984;2022-07-23T02:45:20;101025.46;;;20.03;47.25
42411;BME280;28056;51.112;0.984;2022-07-23T02:47:47;101025.48;;;19.64;47.51
42411;BME280;28056;51.112;0.984;2022-07-23T02:50:15;101025.72;;;19.70;46.98
42411;BME280;28056;51.112;0.984;2022-07-23T02:52:43;101024.86;;;19.87;47.20
42411;BME280;28056;51.112;0.984;2022-07-23T02:55:10;101023.02;;;19.42;48.51
42411;BME280;28056;51.112;0.984;2022-07-23T02:57:39;101023.75;;;19.60;47.89
42411;BME280;28056;51.112;0.984;2022-07-23T03:00:07;101023.24;;;19.58;47.52
42411;BME280;28056;51.112;0.984;2022-07-23T03:02:35;101020.83;;;19.42;47.73
42411;BME280;28056;51.112;0.984;2022-07-23T03:05:04;101016.65;;;19.18;47.71
42411;BME280;28056;51.112;0.984;2022-07-23T03:07:31;101015.71;;;19.36;47.68
42411;BME280;28056;51.112;0.984;2022-07-23T03:09:59;101016.53;;;19.38;47.28
42411;BME280;28056;51.112;0.984;2022-07-23T03:12:27;101014.37;;;19.43;47.45
42411;BME280;28056;51.112;0.984;2022-07-23T03:14:54;101014.81;;;19.23;47.51
42411;BME280;28056;51.112;0.984;2022-07-23T03:17:22;101010.78;;;19.35;47.65
42411;BME280;28056;51.112;0.984;2022-07-23T03:19:50;101013.44;;;19.15;47.68
42411;BME280;28056;51.112;0.984;2022-07-23T03:22:17;101017.84;;;19.19;47.70
42411;BME280;28056;51.112;0.984;2022-07-23T03:24:45;101021.33;;;19.22;48.10
42411;BME280;28056;51.112;0.984;2022-07-23T03:27:13;101025.93;;;19.17;48.12
42411;BME280;28056;51.112;0.984;2022-07-23T03:29:40;101030.48;;;19.53;48.10
42411;BME280;28056;51.112;0.984;2022-07-23T03:32:08;101028.91;;;18.78;49.02
42411;BME280;28056;51.112;0.984;2022-07-23T03:34:36;101024.61;;;19.27;48.41
42411;BME280;28056;51.112;0.984;2022-07-23T03:37:04;101025.22;;;19.23;48.32
42411;BME280;28056;51.112;0.984;2022-07-23T03:39:32;101023.54;;;18.39;51.18
42411;BME280;28056;51.112;0.984;2022-07-23T03:42:00;101029.35;;;17.66;52.55
42411;BME280;28056;51.112;0.984;2022-07-23T03:44:27;101030.51;;;17.56;53.05
42411;BME280;28056;51.112;0.984;2022-07-23T03:46:55;101032.17;;;17.64;52.92
42411;BME280;28056;51.112;0.984;2022-07-23T03:49:22;101031.52;;;17.17;53.38
42411;BME280;28056;51.112;0.984;2022-07-23T03:51:50;101026.90;;;17.45;52.87
42411;BME280;28056;51.112;0.984;2022-07-23T03:54:18;101022.28;;;17.71;52.23
42411;BME280;28056;51.112;0.984;2022-07-23T03:56:46;101020.13;;;17.45;52.89
42411;BME280;28056;51.112;0.984;2022-07-23T03:59:14;101020.73;;;17.72;52.81
42411;BME280;28056;51.112;0.984;2022-07-23T04:01:41;101022.45;;;17.61;52.58
42411;BME280;28056;51.112;0.984;2022-07-23T04:04:08;101021.61;;;18.14;51.95
42411;BME280;28056;51.112;0.984;2022-07-23T04:06:36;101018.61;;;18.03;51.88
42411;BME280;28056;51.112;0.984;2022-07-23T04:09:04;101019.19;;;18.14;51.90
42411;BME280;28056;51.112;0.984;2022-07-23T04:11:31;101021.60;;;17.92;52.20
42411;BME280;28056;51.112;0.984;2022-07-23T04:13:59;101015.66;;;18.39;51.47
42411;BME280;28056;51.112;0.984;2022-07-23T04:16:27;101018.81;;;18.64;50.53
42411;BME280;28056;51.112;0.984;2022-07-23T04:18:54;101020.10;;;18.82;50.08
42411;BME280;28056;51.112;0.984;2022-07-23T04:21:22;101021.63;;;18.84;50.00
42411;BME280;28056;51.112;0.984;2022-07-23T04:23:50;101020.81;;;18.84;49.87
42411;BME280;28056;51.112;0.984;2022-07-23T04:26:17;101020.87;;;18.60;48.99
42411;BME280;28056;51.112;0.984;2022-07-23T04:28:45;101022.63;;;18.62;49.56
42411;BME280;28056;51.112;0.984;2022-07-23T04:31:13;101031.86;;;18.18;50.03
42411;BME280;28056;51.112;0.984;2022-07-23T04:33:41;101032.65;;;18.37;49.99
42411;BME280;28056;51.112;0.984;2022-07-23T04:36:09;101035.08;;;18.43;50.00
42411;BME280;28056;51.112;0.984;2022-07-23T04:38:36;101037.33;;;18.76;50.07
42411;BME280;28056;51.112;0.984;2022-07-23T04:41:04;101039.10;;;18.74;49.75
42411;BME280;28056;51.112;0.984;2022-07-23T04:43:32;101037.46;;;18.64;49.66
42411;BME280;28056;51.112;0.984;2022-07-23T04:45:59;101038.16;;;18.88;49.90
42411;BME280;28056;51.112;0.984;2022-07-23T04:48:27;101037.58;;;19.02;49.82
42411;BME280;28056;51.112;0.984;2022-07-23T04:50:54;101038.79;;;18.91;49.56
42411;BME280;28056;51.112;0.984;2022-07-23T04:53:22;101040.71;;;19.12;49.62
42411;BME280;28056;51.112;0.984;2022-07-23T04:55:49;101045.61;;;18.71;50.22
42411;BME280;28056;51.112;0.984;2022-07-23T04:58:17;101046.92;;;18.87;49.92
42411;BME280;28056;51.112;0.984;2022-07-23T05:00:45;101046.41;;;18.84;49.56
42411;BME280;28056;51.112;0.984;2022-07-23T05:03:13;101047.74;;;19.31;49.35
42411;BME280;28056;51.112;0.984;2022-07-23T05:05:40;101050.26;;;19.16;49.69
42411;BME280;28056;51.112;0.984;2022-07-23T05:08:08;101050.41;;;19.30;49.41
42411;BME280;28056;51.112;0.984;2022-07-23T05:10:35;101052.24;;;18.95;49.71
42411;BME280;28056;51.112;0.984;2022-07-23T05:13:03;101053.35;;;19.42;49.11
42411;BME280;28056;51.112;0.984;2022-07-23T05:15:31;101051.83;;;19.38;48.84
42411;BME280;28056;51.112;0.984;2022-07-23T05:17:58;101055.33;;;19.20;49.10
42411;BME280;28056;51.112;0.984;2022-07-23T05:20:27;101054.69;;;19.24;48.92
42411;BME280;28056;51.112;0.984;2022-07-23T05:22:55;101056.23;;;19.24;48.99
42411;BME280;28056;51.112;0.984;2022-07-23T05:25:22;101055.91;;;19.02;49.34
42411;BME280;28056;51.112;0.984;2022-07-23T05:27:50;101055.46;;;19.35;48.85
42411;BME280;28056;51.112;0.984;2022-07-23T05:30:18;101053.73;;;19.20;48.73
42411;BME280;28056;51.112;0.984;2022-07-23T05:32:45;101052.19;;;19.17;48.92
42411;BME280;28056;51.112;0.984;2022-07-23T05:35:13;101049.28;;;19.42;48.57
42411;BME280;28056;51.112;0.984;2022-07-23T05:37:41;101044.56;;;19.48;48.50
42411;BME280;28056;51.112;0.984;2022-07-23T05:40:10;101047.79;;;19.68;48.43
42411;BME280;28056;51.112;0.984;2022-07-23T05:42:39;101045.35;;;19.75;48.54
42411;BME280;28056;51.112;0.984;2022-07-23T05:45:08;101043.39;;;19.82;48.51
42411;BME280;28056;51.112;0.984;2022-07-23T05:47:41;101044.86;;;19.87;48.51
42411;BME280;28056;51.112;0.984;2022-07-23T05:50:09;101046.08;;;20.01;48.68
42411;BME280;28056;51.112;0.984;2022-07-23T05:52:36;101043.97;;;20.02;48.74
42411;BME280;28056;51.112;0.984;2022-07-23T05:55:04;101043.94;;;19.39;50.35
42411;BME280;28056;51.112;0.984;2022-07-23T05:57:32;101045.80;;;18.44;52.24
42411;BME280;28056;51.112;0.984;2022-07-23T06:00:00;101047.24;;;18.51;52.09
42411;BME280;28056;51.112;0.984;2022-07-23T06:02:28;101045.17;;;19.16;51.04
42411;BME280;28056;51.112;0.984;2022-07-23T06:04:56;101044.87;;;19.56;50.42
42411;BME280;28056;51.112;0.984;2022-07-23T06:07:23;101046.49;;;19.80;50.11
42411;BME280;28056;51.112;0.984;2022-07-23T06:09:51;101050.11;;;20.04;49.78
42411;BME280;28056;51.112;0.984;2022-07-23T06:12:18;101048.10;;;19.62;51.05
42411;BME280;28056;51.112;0.984;2022-07-23T06:14:46;101053.98;;;19.32;52.52
42411;BME280;28056;51.112;0.984;2022-07-23T06:17:13;101056.05;;;19.54;52.56
42411;BME280;28056;51.112;0.984;2022-07-23T06:19:40;101059.78;;;18.93;53.72
42411;BME280;28056;51.112;0.984;2022-07-23T06:22:08;101060.53;;;18.95;54.31
42411;BME280;28056;51.112;0.984;2022-07-23T06:24:35;101058.30;;;19.70;53.16
42411;BME280;28056;51.112;0.984;2022-07-23T06:27:03;101057.28;;;19.09;53.99
42411;BME280;28056;51.112;0.984;2022-07-23T06:29:30;101058.20;;;19.94;53.31
42411;BME280;28056;51.112;0.984;2022-07-23T06:31:58;101062.57;;;20.39;52.80
42411;BME280;28056;51.112;0.984;2022-07-23T06:34:25;101064.23;;;20.77;51.99
42411;BME280;28056;51.112;0.984;2022-07-23T06:36:53;101061.09;;;20.35;52.60
42411;BME280;28056;51.112;0.984;2022-07-23T06:39:20;101058.34;;;20.68;52.04
42411;BME280;28056;51.112;0.984;2022-07-23T06:41:48;101058.41;;;21.05;51.38
42411;BME280;28056;51.112;0.984;2022-07-23T06:44:15;101059.33;;;21.34;50.75
42411;BME280;28056;51.112;0.984;2022-07-23T06:46:43;101064.28;;;21.57;50.43
42411;BME280;28056;51.112;0.984;2022-07-23T06:49:11;101066.24;;;21.52;50.24
42411;BME280;28056;51.112;0.984;2022-07-23T06:51:38;101066.92;;;22.02;48.45
42411;BME280;28056;51.112;0.984;2022-07-23T06:54:05;101067.30;;;21.46;49.12
42411;BME280;28056;51.112;0.984;2022-07-23T06:56:33;101063.19;;;21.60;48.29
42411;BME280;28056;51.112;0.984;2022-07-23T06:59:00;101061.69;;;21.66;48.84
42411;BME280;28056;51.112;0.984;2022-07-23T07:01:28;101058.30;;;21.93;48.74
42411;BME280;28056;51.112;0.984;2022-07-23T07:03:55;101056.54;;;22.14;46.89
42411;BME280;28056;51.112;0.984;2022-07-23T07:06:23;101057.04;;;21.64;46.61
42411;BME280;28056;51.112;0.984;2022-07-23T07:08:50;101059.07;;;21.91;46.56
42411;BME280;28056;51.112;0.984;2022-07-23T07:11:17;101059.92;;;21.92;47.40
42411;BME280;28056;51.112;0.984;2022-07-23T07:13:45;101054.57;;;20.35;50.16
42411;BME280;28056;51.112;0.984;2022-07-23T07:16:12;101052.72;;;19.37;51.93
42411;BME280;28056;51.112;0.984;2022-07-23T07:18:39;101055.26;;;20.83;49.84
42411;BME280;28056;51.112;0.984;2022-07-23T07:21:07;101064.77;;;21.29;48.90
42411;BME280;28056;51.112;0.984;2022-07-23T07:23:34;101061.05;;;20.81;49.12
42411;BME280;28056;51.112;0.984;2022-07-23T07:26:02;101060.93;;;21.20;49.75
42411;BME280;28056;51.112;0.984;2022-07-23T07:28:30;101064.18;;;21.61;48.62
42411;BME280;28056;51.112;0.984;2022-07-23T07:30:59;101058.93;;;20.91;49.28
42411;BME280;28056;51.112;0.984;2022-07-23T07:33:26;101056.78;;;20.96;48.68
42411;BME280;28056;51.112;0.984;2022-07-23T07:35:53;101059.88;;;20.99;47.34
42411;BME280;28056;51.112;0.984;2022-07-23T07:38:21;101064.02;;;21.20;47.92
42411;BME280;28056;51.112;0.984;2022-07-23T07:40:48;101072.44;;;21.48;47.83
42411;BME280;28056;51.112;0.984;2022-07-23T07:43:16;101069.66;;;21.23;48.31
42411;BME280;28056;51.112;0.984;2022-07-23T07:45:43;101066.59;;;20.77;48.03
42411;BME280;28056;51.112;0.984;2022-07-23T07:48:10;101066.28;;;20.77;48.78
42411;BME280;28056;51.112;0.984;2022-07-23T07:50:38;101070.41;;;20.38;49.45
42411;BME280;28056;51.112;0.984;2022-07-23T07:53:05;101071.88;;;21.09;47.34
42411;BME280;28056;51.112;0.984;2022-07-23T07:55:32;101074.68;;;21.55;47.83
42411;BME280;28056;51.112;0.984;2022-07-23T07:58:00;101076.79;;;22.06;46.04
42411;BME280;28056;51.112;0.984;2022-07-23T08:00:28;101083.92;;;21.48;47.87
42411;BME280;28056;51.112;0.984;2022-07-23T08:02:56;101085.60;;;20.23;49.86
42411;BME280;28056;51.112;0.984;2022-07-23T08:05:25;101086.22;;;21.49;46.86
42411;BME280;28056;51.112;0.984;2022-07-23T08:07:53;101082.48;;;20.63;48.53
42411;BME280;28056;51.112;0.984;2022-07-23T08:10:21;101078.91;;;20.77;48.70
42411;BME280;28056;51.112;0.984;2022-07-23T08:12:50;101076.23;;;20.60;49.37
42411;BME280;28056;51.112;0.984;2022-07-23T08:15:19;101080.45;;;20.89;47.30
42411;BME280;28056;51.112;0.984;2022-07-23T08:17:48;101085.63;;;21.42;47.20
42411;BME280;28056;51.112;0.984;2022-07-23T08:20:17;101081.83;;;20.84;47.17
42411;BME280;28056;51.112;0.984;2022-07-23T08:22:48;101087.96;;;22.56;45.33
42411;BME280;28056;51.112;0.984;2022-07-23T08:25:20;101090.32;;;21.79;47.50
42411;BME280;28056;51.112;0.984;2022-07-23T08:27:49;101095.98;;;22.58;45.08
42411;BME280;28056;51.112;0.984;2022-07-23T08:30:18;101094.56;;;23.11;44.26
42411;BME280;28056;51.112;0.984;2022-07-23T08:32:51;101095.00;;;22.92;44.10
42411;BME280;28056;51.112;0.984;2022-07-23T08:35:22;101092.49;;;22.49;44.87
42411;BME280;28056;51.112;0.984;2022-07-23T08:37:50;101088.45;;;23.72;42.78
42411;BME280;28056;51.112;0.984;2022-07-23T08:40:18;101086.14;;;23.47;42.78
42411;BME280;28056;51.112;0.984;2022-07-23T08:42:48;101085.01;;;23.48;43.65
42411;BME280;28056;51.112;0.984;2022-07-23T08:45:18;101079.41;;;23.70;42.50
42411;BME280;28056;51.112;0.984;2022-07-23T08:47:48;101076.32;;;23.50;42.33
42411;BME280;28056;51.112;0.984;2022-07-23T08:50:16;101073.95;;;22.83;41.98
42411;BME280;28056;51.112;0.984;2022-07-23T08:52:44;101078.98;;;24.25;43.16
42411;BME280;28056;51.112;0.984;2022-07-23T08:55:17;101080.20;;;24.78;40.28
42411;BME280;28056;51.112;0.984;2022-07-23T08:57:46;101077.68;;;23.76;41.19
42411;BME280;28056;51.112;0.984;2022-07-23T09:00:16;101079.55;;;24.65;40.06
42411;BME280;28056;51.112;0.984;2022-07-23T09:02:44;101078.34;;;24.24;39.16
42411;BME280;28056;51.112;0.984;2022-07-23T09:05:14;101079.84;;;24.53;38.43
42411;BME280;28056;51.112;0.984;2022-07-23T09:08:05;101080.78;;;24.84;39.86
42411;BME280;28056;51.112;0.984;2022-07-23T09:10:45;101081.61;;;25.04;39.10
42411;BME280;28056;51.112;0.984;2022-07-23T09:13:31;101085.20;;;25.48;39.39
42411;BME280;28056;51.112;0.984;2022-07-23T09:16:02;101084.20;;;25.16;38.40
42411;BME280;28056;51.112;0.984;2022-07-23T09:18:32;101085.93;;;25.82;36.44
42411;BME280;28056;51.112;0.984;2022-07-23T09:21:20;101088.55;;;25.88;37.28
42411;BME280;28056;51.112;0.984;2022-07-23T09:23:50;101087.49;;;24.32;36.63
42411;BME280;28056;51.112;0.984;2022-07-23T09:26:21;101088.70;;;23.98;38.22
42411;BME280;28056;51.112;0.984;2022-07-23T09:28:52;101091.97;;;25.27;36.50
42411;BME280;28056;51.112;0.984;2022-07-23T09:31:20;101093.18;;;24.63;37.32
42411;BME280;28056;51.112;0.984;2022-07-23T09:33:48;101093.63;;;24.47;37.14
42411;BME280;28056;51.112;0.984;2022-07-23T09:36:18;101096.78;;;25.87;37.38
42411;BME280;28056;51.112;0.984;2022-07-23T09:38:54;101097.59;;;26.28;34.61
42411;BME280;28056;51.112;0.984;2022-07-23T09:41:22;101093.51;;;24.90;36.78
42411;BME280;28056;51.112;0.984;2022-07-23T09:43:55;101094.88;;;26.07;35.69
42411;BME280;28056;51.112;0.984;2022-07-23T09:46:23;101095.60;;;24.78;37.14
42411;BME280;28056;51.112;0.984;2022-07-23T09:48:51;101097.61;;;25.03;37.38
42411;BME280;28056;51.112;0.984;2022-07-23T09:51:19;101094.47;;;23.76;38.18
42411;BME280;28056;51.112;0.984;2022-07-23T09:53:47;101091.84;;;23.71;38.04
42411;BME280;28056;51.112;0.984;2022-07-23T09:56:14;101093.47;;;23.72;38.53
42411;BME280;28056;51.112;0.984;2022-07-23T09:58:44;101092.02;;;24.43;38.65
42411;BME280;28056;51.112;0.984;2022-07-23T10:01:13;101092.52;;;24.49;38.13
42411;BME280;28056;51.112;0.984;2022-07-23T10:03:41;101093.80;;;24.64;38.17
42411;BME280;28056;51.112;0.984;2022-07-23T10:06:10;101085.61;;;24.59;37.15
42411;BME280;28056;51.112;0.984;2022-07-23T10:08:41;101086.33;;;24.33;37.87
42411;BME280;28056;51.112;0.984;2022-07-23T10:11:11;101090.03;;;25.15;36.76
42411;BME280;28056;51.112;0.984;2022-07-23T10:13:40;101088.06;;;25.36;36.68
42411;BME280;28056;51.112;0.984;2022-07-23T10:16:08;101089.17;;;25.41;36.70
42411;BME280;28056;51.112;0.984;2022-07-23T10:18:36;101085.93;;;23.46;40.04
42411;BME280;28056;51.112;0.984;2022-07-23T10:21:16;101085.71;;;23.90;40.54
42411;BME280;28056;51.112;0.984;2022-07-23T10:23:51;101087.94;;;24.93;40.70
42411;BME280;28056;51.112;0.984;2022-07-23T10:26:34;101088.48;;;25.26;39.83
42411;BME280;28056;51.112;0.984;2022-07-23T10:29:13;101086.23;;;24.64;38.74
42411;BME280;28056;51.112;0.984;2022-07-23T10:31:52;101084.42;;;23.94;40.20
42411;BME280;28056;51.112;0.984;2022-07-23T10:34:34;101090.06;;;24.54;40.69
42411;BME280;28056;51.112;0.984;2022-07-23T10:37:12;101085.38;;;24.32;39.67
42411;BME280;28056;51.112;0.984;2022-07-23T10:39:41;101083.55;;;25.11;39.90
42411;BME280;28056;51.112;0.984;2022-07-23T10:42:10;101087.11;;;24.90;38.13
42411;BME280;28056;51.112;0.984;2022-07-23T10:44:40;101086.98;;;25.28;38.30
42411;BME280;28056;51.112;0.984;2022-07-23T10:47:08;101082.46;;;24.47;39.51
42411;BME280;28056;51.112;0.984;2022-07-23T10:49:36;101088.33;;;24.50;38.42
42411;BME280;28056;51.112;0.984;2022-07-23T10:52:23;101082.69;;;24.47;38.61
42411;BME280;28056;51.112;0.984;2022-07-23T10:54:54;101081.48;;;24.18;38.72
42411;BME280;28056;51.112;0.984;2022-07-23T10:57:23;101076.32;;;24.58;37.34
42411;BME280;28056;51.112;0.984;2022-07-23T11:00:24;101076.16;;;23.84;38.87
42411;BME280;28056;51.112;0.984;2022-07-23T11:02:53;101072.15;;;24.19;38.98
42411;BME280;28056;51.112;0.984;2022-07-23T11:05:23;101075.43;;;24.42;38.60
42411;BME280;28056;51.112;0.984;2022-07-23T11:08:22;101079.56;;;24.42;39.76
42411;BME280;28056;51.112;0.984;2022-07-23T11:10:53;101078.23;;;24.12;38.95
42411;BME280;28056;51.112;0.984;2022-07-23T11:13:29;101077.61;;;24.63;39.68
42411;BME280;28056;51.112;0.984;2022-07-23T11:16:07;101077.04;;;24.62;38.70
42411;BME280;28056;51.112;0.984;2022-07-23T11:19:08;101073.23;;;24.74;38.97
42411;BME280;28056;51.112;0.984;2022-07-23T11:21:47;101068.99;;;24.42;38.23
42411;BME280;28056;51.112;0.984;2022-07-23T11:24:17;101069.34;;;23.75;39.11
42411;BME280;28056;51.112;0.984;2022-07-23T11:26:49;101070.75;;;26.12;37.91
42411;BME280;28056;51.112;0.984;2022-07-23T11:29:49;101068.26;;;26.01;37.35
42411;BME280;28056;51.112;0.984;2022-07-23T11:32:27;101068.41;;;24.95;37.03
42411;BME280;28056;51.112;0.984;2022-07-23T11:34:56;101068.29;;;25.46;36.64
42411;BME280;28056;51.112;0.984;2022-07-23T11:37:40;101063.34;;;25.21;36.44
42411;BME280;28056;51.112;0.984;2022-07-23T11:40:09;101071.85;;;25.42;36.34
42411;BME280;28056;51.112;0.984;2022-07-23T11:42:38;101066.04;;;25.33;36.39
42411;BME280;28056;51.112;0.984;2022-07-23T11:45:08;101062.96;;;24.38;37.37
42411;BME280;28056;51.112;0.984;2022-07-23T11:47:36;101060.81;;;25.55;36.23
42411;BME280;28056;51.112;0.984;2022-07-23T11:50:05;101063.83;;;25.93;36.39
42411;BME280;28056;51.112;0.984;2022-07-23T11:52:33;101062.16;;;25.61;37.56
42411;BME280;28056;51.112;0.984;2022-07-23T11:55:04;101062.66;;;25.39;38.33
42411;BME280;28056;51.112;0.984;2022-07-23T11:57:35;101060.51;;;25.89;35.84
42411;BME280;28056;51.112;0.984;2022-07-23T12:00:06;101063.58;;;26.30;35.89
42411;BME280;28056;51.112;0.984;2022-07-23T12:02:34;101067.27;;;26.42;36.06
42411;BME280;28056;51.112;0.984;2022-07-23T12:05:02;101071.17;;;26.45;35.57
42411;BME280;28056;51.112;0.984;2022-07-23T12:07:31;101073.40;;;25.76;35.77
42411;BME280;28056;51.112;0.984;2022-07-23T12:10:00;101076.95;;;26.53;35.76
42411;BME280;28056;51.112;0.984;2022-07-23T12:12:28;101075.41;;;26.46;35.34
42411;BME280;28056;51.112;0.984;2022-07-23T12:15:02;101073.19;;;27.17;32.80
42411;BME280;28056;51.112;0.984;2022-07-23T12:17:32;101066.46;;;26.32;34.55
42411;BME280;28056;51.112;0.984;2022-07-23T12:20:02;101066.03;;;26.23;34.04
42411;BME280;28056;51.112;0.984;2022-07-23T12:22:36;101069.36;;;27.33;35.88
42411;BME280;28056;51.112;0.984;2022-07-23T12:25:06;101072.09;;;26.91;35.07
42411;BME280;28056;51.112;0.984;2022-07-23T12:27:35;101071.41;;;28.13;34.17
42411;BME280;28056;51.112;0.984;2022-07-23T12:30:22;101059.88;;;28.99;33.74
42411;BME280;28056;51.112;0.984;2022-07-23T12:32:56;101053.79;;;27.75;32.28
42411;BME280;28056;51.112;0.984;2022-07-23T12:35:29;101066.63;;;27.50;32.73
42411;BME280;28056;51.112;0.984;2022-07-23T12:38:01;101066.21;;;26.89;32.76
42411;BME280;28056;51.112;0.984;2022-07-23T12:40:31;101060.93;;;27.97;32.11
42411;BME280;28056;51.112;0.984;2022-07-23T12:43:02;101063.15;;;28.17;31.93
42411;BME280;28056;51.112;0.984;2022-07-23T12:45:44;101067.12;;;28.59;31.31
42411;BME280;28056;51.112;0.984;2022-07-23T12:48:24;101060.26;;;28.68;32.56
42411;BME280;28056;51.112;0.984;2022-07-23T12:50:56;101062.62;;;27.07;31.15
42411;BME280;28056;51.112;0.984;2022-07-23T12:53:25;101055.81;;;28.22;30.94
42411;BME280;28056;51.112;0.984;2022-07-23T12:56:00;101060.22;;;28.97;31.88
42411;BME280;28056;51.112;0.984;2022-07-23T12:58:40;101057.04;;;28.81;30.62
42411;BME280;28056;51.112;0.984;2022-07-23T13:01:08;101059.74;;;28.22;29.58
42411;BME280;28056;51.112;0.984;2022-07-23T13:03:38;101059.04;;;29.18;30.04
42411;BME280;28056;51.112;0.984;2022-07-23T13:06:08;101065.19;;;29.99;27.13